sensor_id;sensor_type;location;lat;lon;timestamp;temperature;humidity
16273;DHT22;8244;50.044;9.006;2023-04-24T00:02:36;12.10;99.90
16273;DHT22;8244;50.044;9.006;2023-04-24T00:07:40;12.10;99.90
16273;DHT22;8244;50.044;9.006;2023-04-24T00:12:42;12.10;99.90
16273;DHT22;8244;50.044;9.006;2023-04-24T00:17:43;12.10;99.90
16273;DHT22;8244;50.044;9.006;2023-04-24T00:22:46;12.10;99.90
16273;DHT22;8244;50.044;9.006;2023-04-24T00:27:48;12.10;99.90
16273;DHT22;8244;50.044;9.006;2023-04-24T00:32:50;12.00;99.90
16273;DHT22;8244;50.044;9.006;2023-04-24T00:37:53;12.00;99.90
16273;DHT22;8244;50.044;9.006;2023-04-24T00:42:55;12.00;99.90
16273;DHT22;8244;50.044;9.006;2023-04-24T00:47:57;12.00;99.90
16273;DHT22;8244;50.044;9.006;2023-04-24T00:53:00;12.00;99.90
16273;DHT22;8244;50.044;9.006;2023-04-24T00:58:02;12.00;99.90
16273;DHT22;8244;50.044;9.006;2023-04-24T01:03:04;12.00;99.90
16273;DHT22;8244;50.044;9.006;2023-04-24T01:08:08;11.90;99.90
16273;DHT22;8244;50.044;9.006;2023-04-24T01:13:10;11.90;99.90
16273;DHT22;8244;50.044;9.006;2023-04-24T01:18:12;12.00;99.90
16273;DHT22;8244;50.044;9.006;2023-04-24T01:23:15;12.00;99.90
16273;DHT22;8244;50.044;9.006;2023-04-24T01:28:17;12.00;99.90
16273;DHT22;8244;50.044;9.006;2023-04-24T01:33:21;11.90;99.90
16273;DHT22;8244;50.044;9.006;2023-04-24T01:38:24;11.90;99.90
16273;DHT22;8244;50.044;9.006;2023-04-24T01:43:25;11.90;99.90
16273;DHT22;8244;50.044;9.006;2023-04-24T01:48:28;11.90;99.90
16273;DHT22;8244;50.044;9.006;2023-04-24T01:53:31;11.90;99.90
16273;DHT22;8244;50.044;9.006;2023-04-24T01:58:33;11.90;99.90
16273;DHT22;8244;50.044;9.006;2023-04-24T02:03:35;11.90;99.90
16273;DHT22;8244;50.044;9.006;2023-04-24T02:08:38;11.90;99.90
16273;DHT22;8244;50.044;9.006;2023-04-24T02:13:40;11.90;99.90
16273;DHT22;8244;50.044;9.006;2023-04-24T02:18:41;11.90;99.90
16273;DHT22;8244;50.044;9.006;2023-04-24T02:23:44;11.90;99.90
16273;DHT22;8244;50.044;9.006;2023-04-24T02:28:46;11.90;99.90
16273;DHT22;8244;50.044;9.006;2023-04-24T02:33:47;11.90;99.90
16273;DHT22;8244;50.044;9.006;2023-04-24T02:38:50;11.90;99.90
16273;DHT22;8244;50.044;9.006;2023-04-24T02:43:52;11.90;99.90
16273;DHT22;8244;50.044;9.006;2023-04-24T02:48:54;11.90;99.90
16273;DHT22;8244;50.044;9.006;2023-04-24T02:53:57;11.90;99.90
16273;DHT22;8244;50.044;9.006;2023-04-24T02:58:58;11.90;99.90
16273;DHT22;8244;50.044;9.006;2023-04-24T03:04:00;11.90;99.90
16273;DHT22;8244;50.044;9.006;2023-04-24T03:09:03;11.90;99.90
16273;DHT22;8244;50.044;9.006;2023-04-24T03:14:05;11.90;99.90
16273;DHT22;8244;50.044;9.006;2023-04-24T03:19:07;11.90;99.90
16273;DHT22;8244;50.044;9.006;2023-04-24T03:24:10;11.90;99.90
16273;DHT22;8244;50.044;9.006;2023-04-24T03:29:11;11.90;99.90
16273;DHT22;8244;50.044;9.006;2023-04-24T03:34:13;11.90;99.90
16273;DHT22;8244;50.044;9.006;2023-04-24T03:39:16;12.00;99.90
16273;DHT22;8244;50.044;9.006;2023-04-24T03:44:18;11.90;99.90
16273;DHT22;8244;50.044;9.006;2023-04-24T03:49:19;11.90;99.90
16273;DHT22;8244;50.044;9.006;2023-04-24T03:54:23;11.90;99.90
16273;DHT22;8244;50.044;9.006;2023-04-24T03:59:25;11.90;99.90
16273;DHT22;8244;50.044;9.006;2023-04-24T04:04:27;11.80;99.90
16273;DHT22;8244;50.044;9.006;2023-04-24T04:09:29;11.80;99.90
16273;DHT22;8244;50.044;9.006;2023-04-24T04:14:31;11.70;99.90
16273;DHT22;8244;50.044;9.006;2023-04-24T04:19:33;11.70;99.90
16273;DHT22;8244;50.044;9.006;2023-04-24T04:24:36;11.60;99.90
16273;DHT22;8244;50.044;9.006;2023-04-24T04:29:40;11.60;99.90
16273;DHT22;8244;50.044;9.006;2023-04-24T04:34:42;11.50;99.90
16273;DHT22;8244;50.044;9.006;2023-04-24T04:39:47;11.40;99.90
16273;DHT22;8244;50.044;9.006;2023-04-24T04:44:48;11.30;99.90
16273;DHT22;8244;50.044;9.006;2023-04-24T04:49:50;11.30;99.90
16273;DHT22;8244;50.044;9.006;2023-04-24T04:54:53;11.20;99.90
16273;DHT22;8244;50.044;9.006;2023-04-24T04:59:55;11.10;99.90
16273;DHT22;8244;50.044;9.006;2023-04-24T05:04:57;11.00;99.90
16273;DHT22;8244;50.044;9.006;2023-04-24T05:10:00;11.00;99.90
16273;DHT22;8244;50.044;9.006;2023-04-24T05:15:02;11.00;99.90
16273;DHT22;8244;50.044;9.006;2023-04-24T05:20:05;11.10;99.90
16273;DHT22;8244;50.044;9.006;2023-04-24T05:25:09;11.20;99.90
16273;DHT22;8244;50.044;9.006;2023-04-24T05:30:11;11.50;99.90
16273;DHT22;8244;50.044;9.006;2023-04-24T05:35:13;12.40;99.90
16273;DHT22;8244;50.044;9.006;2023-04-24T05:40:16;13.20;99.90
16273;DHT22;8244;50.044;9.006;2023-04-24T05:45:17;14.30;99.90
16273;DHT22;8244;50.044;9.006;2023-04-24T05:50:19;15.30;99.90
16273;DHT22;8244;50.044;9.006;2023-04-24T05:55:22;15.70;99.90
16273;DHT22;8244;50.044;9.006;2023-04-24T06:00:24;16.00;99.90
16273;DHT22;8244;50.044;9.006;2023-04-24T06:05:26;16.00;99.90
16273;DHT22;8244;50.044;9.006;2023-04-24T06:10:29;16.00;99.90
16273;DHT22;8244;50.044;9.006;2023-04-24T06:15:31;16.10;99.90
16273;DHT22;8244;50.044;9.006;2023-04-24T06:20:32;16.50;99.90
16273;DHT22;8244;50.044;9.006;2023-04-24T06:25:35;15.90;99.90
16273;DHT22;8244;50.044;9.006;2023-04-24T06:30:38;15.90;99.90
16273;DHT22;8244;50.044;9.006;2023-04-24T06:35:39;15.60;99.90
16273;DHT22;8244;50.044;9.006;2023-04-24T06:40:42;16.10;99.90
16273;DHT22;8244;50.044;9.006;2023-04-24T06:45:44;16.80;98.20
16273;DHT22;8244;50.044;9.006;2023-04-24T06:50:47;16.60;97.20
16273;DHT22;8244;50.044;9.006;2023-04-24T06:55:50;16.10;98.50
16273;DHT22;8244;50.044;9.006;2023-04-24T07:00:51;16.00;98.90
16273;DHT22;8244;50.044;9.006;2023-04-24T07:05:54;15.80;98.30
16273;DHT22;8244;50.044;9.006;2023-04-24T07:10:57;15.60;99.00
16273;DHT22;8244;50.044;9.006;2023-04-24T07:15:59;15.90;97.40
16273;DHT22;8244;50.044;9.006;2023-04-24T07:21:01;16.50;98.20
16273;DHT22;8244;50.044;9.006;2023-04-24T07:26:04;16.50;96.90
16273;DHT22;8244;50.044;9.006;2023-04-24T07:31:05;16.40;96.80
16273;DHT22;8244;50.044;9.006;2023-04-24T07:36:07;16.40;97.30
16273;DHT22;8244;50.044;9.006;2023-04-24T07:41:16;16.30;96.00
16273;DHT22;8244;50.044;9.006;2023-04-24T07:46:21;16.80;97.50
16273;DHT22;8244;50.044;9.006;2023-04-24T07:51:23;17.90;94.30
16273;DHT22;8244;50.044;9.006;2023-04-24T07:56:27;18.30;93.40
16273;DHT22;8244;50.044;9.006;2023-04-24T08:01:31;18.40;91.10
16273;DHT22;8244;50.044;9.006;2023-04-24T08:06:33;17.70;92.50
16273;DHT22;8244;50.044;9.006;2023-04-24T08:11:36;17.80;91.90
16273;DHT22;8244;50.044;9.006;2023-04-24T08:16:38;16.90;92.20
16273;DHT22;8244;50.044;9.006;2023-04-24T08:21:39;16.50;93.30
16273;DHT22;8244;50.044;9.006;2023-04-24T08:26:42;17.30;93.90
16273;DHT22;8244;50.044;9.006;2023-04-24T08:31:44;17.70;92.30
16273;DHT22;8244;50.044;9.006;2023-04-24T08:36:45;17.20;91.40
16273;DHT22;8244;50.044;9.006;2023-04-24T08:41:48;16.60;93.60
16273;DHT22;8244;50.044;9.006;2023-04-24T08:46:53;16.50;92.70
16273;DHT22;8244;50.044;9.006;2023-04-24T08:51:55;16.10;92.70
16273;DHT22;8244;50.044;9.006;2023-04-24T08:57:01;16.00;93.70
16273;DHT22;8244;50.044;9.006;2023-04-24T09:02:04;16.80;92.10
16273;DHT22;8244;50.044;9.006;2023-04-24T09:07:06;17.30;89.90
16273;DHT22;8244;50.044;9.006;2023-04-24T09:12:11;16.80;90.80
16273;DHT22;8244;50.044;9.006;2023-04-24T09:17:14;16.60;90.40
16273;DHT22;8244;50.044;9.006;2023-04-24T09:22:15;16.00;91.20
16273;DHT22;8244;50.044;9.006;2023-04-24T09:27:18;15.70;92.40
16273;DHT22;8244;50.044;9.006;2023-04-24T09:32:21;15.50;92.30
16273;DHT22;8244;50.044;9.006;2023-04-24T09:37:28;15.20;93.10
16273;DHT22;8244;50.044;9.006;2023-04-24T09:42:31;15.00;93.80
16273;DHT22;8244;50.044;9.006;2023-04-24T09:47:36;15.00;93.70
16273;DHT22;8244;50.044;9.006;2023-04-24T09:52:40;15.00;93.60
16273;DHT22;8244;50.044;9.006;2023-04-24T09:57:51;15.00;94.10
16273;DHT22;8244;50.044;9.006;2023-04-24T10:02:57;15.10;93.90
16273;DHT22;8244;50.044;9.006;2023-04-24T10:08:04;15.30;93.60
16273;DHT22;8244;50.044;9.006;2023-04-24T10:13:07;15.30;93.20
16273;DHT22;8244;50.044;9.006;2023-04-24T10:18:10;15.20;94.60
16273;DHT22;8244;50.044;9.006;2023-04-24T10:23:13;15.00;93.60
16273;DHT22;8244;50.044;9.006;2023-04-24T10:28:17;15.20;94.90
16273;DHT22;8244;50.044;9.006;2023-04-24T10:33:19;15.50;93.40
16273;DHT22;8244;50.044;9.006;2023-04-24T10:38:24;15.70;94.20
16273;DHT22;8244;50.044;9.006;2023-04-24T10:43:27;16.30;93.20
16273;DHT22;8244;50.044;9.006;2023-04-24T10:48:29;16.50;92.80
16273;DHT22;8244;50.044;9.006;2023-04-24T10:53:31;16.20;93.30
16273;DHT22;8244;50.044;9.006;2023-04-24T10:58:39;15.80;93.80
16273;DHT22;8244;50.044;9.006;2023-04-24T11:03:50;15.30;96.00
16273;DHT22;8244;50.044;9.006;2023-04-24T11:09:02;15.20;96.10
16273;DHT22;8244;50.044;9.006;2023-04-24T11:14:07;15.00;96.70
16273;DHT22;8244;50.044;9.006;2023-04-24T11:19:10;15.10;95.70
16273;DHT22;8244;50.044;9.006;2023-04-24T11:24:23;14.80;96.80
16273;DHT22;8244;50.044;9.006;2023-04-24T11:29:59;14.50;98.20
16273;DHT22;8244;50.044;9.006;2023-04-24T11:35:03;14.00;99.90
16273;DHT22;8244;50.044;9.006;2023-04-24T11:40:07;13.70;99.90
16273;DHT22;8244;50.044;9.006;2023-04-24T11:45:12;13.80;99.90
16273;DHT22;8244;50.044;9.006;2023-04-24T11:50:15;14.30;99.90
16273;DHT22;8244;50.044;9.006;2023-04-24T11:55:25;14.70;99.90
16273;DHT22;8244;50.044;9.006;2023-04-24T12:00:30;14.70;99.90
16273;DHT22;8244;50.044;9.006;2023-04-24T12:05:34;14.80;99.90
16273;DHT22;8244;50.044;9.006;2023-04-24T12:10:36;14.60;99.90
16273;DHT22;8244;50.044;9.006;2023-04-24T12:15:40;14.60;99.90
16273;DHT22;8244;50.044;9.006;2023-04-24T12:20:41;15.00;99.90
16273;DHT22;8244;50.044;9.006;2023-04-24T12:25:43;14.80;99.90
16273;DHT22;8244;50.044;9.006;2023-04-24T12:30:47;14.50;99.90
16273;DHT22;8244;50.044;9.006;2023-04-24T12:35:52;14.30;99.90
16273;DHT22;8244;50.044;9.006;2023-04-24T12:41:02;15.10;99.90
16273;DHT22;8244;50.044;9.006;2023-04-24T12:46:05;15.60;99.90
16273;DHT22;8244;50.044;9.006;2023-04-24T12:51:07;15.70;99.90
16273;DHT22;8244;50.044;9.006;2023-04-24T12:56:09;15.60;99.90
16273;DHT22;8244;50.044;9.006;2023-04-24T13:01:12;15.60;99.90
16273;DHT22;8244;50.044;9.006;2023-04-24T13:06:13;15.50;99.90
16273;DHT22;8244;50.044;9.006;2023-04-24T13:11:15;14.80;99.90
16273;DHT22;8244;50.044;9.006;2023-04-24T13:16:18;14.50;99.90
16273;DHT22;8244;50.044;9.006;2023-04-24T13:21:20;14.60;99.90
16273;DHT22;8244;50.044;9.006;2023-04-24T13:26:21;14.70;99.90
16273;DHT22;8244;50.044;9.006;2023-04-24T13:31:24;15.00;99.90
16273;DHT22;8244;50.044;9.006;2023-04-24T13:36:26;15.00;99.90
16273;DHT22;8244;50.044;9.006;2023-04-24T13:41:28;15.50;99.90
16273;DHT22;8244;50.044;9.006;2023-04-24T13:46:31;15.80;99.90
16273;DHT22;8244;50.044;9.006;2023-04-24T13:51:33;16.40;99.90
16273;DHT22;8244;50.044;9.006;2023-04-24T13:56:35;16.50;99.90
16273;DHT22;8244;50.044;9.006;2023-04-24T14:01:38;16.50;99.90
16273;DHT22;8244;50.044;9.006;2023-04-24T14:06:39;16.80;99.40
16273;DHT22;8244;50.044;9.006;2023-04-24T14:11:41;16.90;97.60
16273;DHT22;8244;50.044;9.006;2023-04-24T14:16:44;16.30;97.40
16273;DHT22;8244;50.044;9.006;2023-04-24T14:21:45;16.10;99.90
16273;DHT22;8244;50.044;9.006;2023-04-24T14:26:47;15.90;99.90
16273;DHT22;8244;50.044;9.006;2023-04-24T14:31:50;15.60;99.90
16273;DHT22;8244;50.044;9.006;2023-04-24T14:36:52;15.60;99.90
16273;DHT22;8244;50.044;9.006;2023-04-24T14:41:54;15.40;99.50
16273;DHT22;8244;50.044;9.006;2023-04-24T14:46:57;14.90;99.90
16273;DHT22;8244;50.044;9.006;2023-04-24T14:51:59;14.80;99.90
16273;DHT22;8244;50.044;9.006;2023-04-24T14:57:03;15.00;99.90
16273;DHT22;8244;50.044;9.006;2023-04-24T15:02:06;15.40;99.90
16273;DHT22;8244;50.044;9.006;2023-04-24T15:07:07;15.50;99.90
16273;DHT22;8244;50.044;9.006;2023-04-24T15:12:09;15.50;99.20
16273;DHT22;8244;50.044;9.006;2023-04-24T15:17:14;15.50;98.40
16273;DHT22;8244;50.044;9.006;2023-04-24T15:22:15;15.30;97.30
16273;DHT22;8244;50.044;9.006;2023-04-24T15:27:17;15.10;98.10
16273;DHT22;8244;50.044;9.006;2023-04-24T15:32:20;14.90;97.50
16273;DHT22;8244;50.044;9.006;2023-04-24T15:37:22;15.00;98.00
16273;DHT22;8244;50.044;9.006;2023-04-24T15:42:23;15.20;97.00
16273;DHT22;8244;50.044;9.006;2023-04-24T15:47:26;15.30;96.00
16273;DHT22;8244;50.044;9.006;2023-04-24T15:52:28;15.10;94.40
16273;DHT22;8244;50.044;9.006;2023-04-24T15:57:30;14.90;95.20
16273;DHT22;8244;50.044;9.006;2023-04-24T16:02:33;14.70;96.00
16273;DHT22;8244;50.044;9.006;2023-04-24T16:07:36;14.70;95.40
16273;DHT22;8244;50.044;9.006;2023-04-24T16:12:38;14.40;96.50
16273;DHT22;8244;50.044;9.006;2023-04-24T16:17:41;14.40;96.00
16273;DHT22;8244;50.044;9.006;2023-04-24T16:22:43;14.30;95.80
16273;DHT22;8244;50.044;9.006;2023-04-24T16:27:45;14.30;96.50
16273;DHT22;8244;50.044;9.006;2023-04-24T16:32:49;14.40;96.60
16273;DHT22;8244;50.044;9.006;2023-04-24T16:37:51;14.40;96.20
16273;DHT22;8244;50.044;9.006;2023-04-24T16:42:52;14.30;95.80
16273;DHT22;8244;50.044;9.006;2023-04-24T16:47:55;14.30;96.20
16273;DHT22;8244;50.044;9.006;2023-04-24T16:52:57;14.30;95.70
16273;DHT22;8244;50.044;9.006;2023-04-24T16:57:59;14.30;95.40
16273;DHT22;8244;50.044;9.006;2023-04-24T17:03:02;14.20;95.50
16273;DHT22;8244;50.044;9.006;2023-04-24T17:08:04;14.10;95.90
16273;DHT22;8244;50.044;9.006;2023-04-24T17:13:06;14.10;96.50
16273;DHT22;8244;50.044;9.006;2023-04-24T17:18:09;14.20;96.70
16273;DHT22;8244;50.044;9.006;2023-04-24T17:23:11;14.30;96.40
16273;DHT22;8244;50.044;9.006;2023-04-24T17:28:20;14.20;96.70
16273;DHT22;8244;50.044;9.006;2023-04-24T17:33:25;14.20;96.60
16273;DHT22;8244;50.044;9.006;2023-04-24T17:38:27;14.00;96.90
16273;DHT22;8244;50.044;9.006;2023-04-24T17:43:29;13.80;97.40
16273;DHT22;8244;50.044;9.006;2023-04-24T17:48:32;13.80;98.00
16273;DHT22;8244;50.044;9.006;2023-04-24T17:53:34;13.70;98.20
16273;DHT22;8244;50.044;9.006;2023-04-24T17:58:35;13.60;98.60
16273;DHT22;8244;50.044;9.006;2023-04-24T18:03:38;13.50;98.80
16273;DHT22;8244;50.044;9.006;2023-04-24T18:08:40;13.50;99.10
16273;DHT22;8244;50.044;9.006;2023-04-24T18:13:42;13.40;99.20
16273;DHT22;8244;50.044;9.006;2023-04-24T18:18:46;13.30;99.80
16273;DHT22;8244;50.044;9.006;2023-04-24T18:23:48;13.20;99.90
16273;DHT22;8244;50.044;9.006;2023-04-24T18:28:50;13.20;99.90
16273;DHT22;8244;50.044;9.006;2023-04-24T18:33:53;12.90;99.90
16273;DHT22;8244;50.044;9.006;2023-04-24T18:38:55;12.60;99.90
16273;DHT22;8244;50.044;9.006;2023-04-24T18:43:56;12.40;99.90
16273;DHT22;8244;50.044;9.006;2023-04-24T18:49:00;12.10;99.90
16273;DHT22;8244;50.044;9.006;2023-04-24T18:54:02;12.00;99.90
16273;DHT22;8244;50.044;9.006;2023-04-24T18:59:04;11.90;99.90
16273;DHT22;8244;50.044;9.006;2023-04-24T19:04:07;11.70;99.90
16273;DHT22;8244;50.044;9.006;2023-04-24T19:09:08;11.50;99.90
16273;DHT22;8244;50.044;9.006;2023-04-24T19:14:10;11.40;99.90
16273;DHT22;8244;50.044;9.006;2023-04-24T19:19:14;11.40;99.90
16273;DHT22;8244;50.044;9.006;2023-04-24T19:24:16;11.30;99.90
16273;DHT22;8244;50.044;9.006;2023-04-24T19:29:18;11.20;99.90
16273;DHT22;8244;50.044;9.006;2023-04-24T19:34:21;11.30;99.90
16273;DHT22;8244;50.044;9.006;2023-04-24T19:39:23;11.20;99.90
16273;DHT22;8244;50.044;9.006;2023-04-24T19:44:24;11.20;99.90
16273;DHT22;8244;50.044;9.006;2023-04-24T19:49:27;11.10;99.90
16273;DHT22;8244;50.044;9.006;2023-04-24T19:54:29;11.10;99.90
16273;DHT22;8244;50.044;9.006;2023-04-24T19:59:30;11.00;99.90
16273;DHT22;8244;50.044;9.006;2023-04-24T20:04:33;10.90;99.90
16273;DHT22;8244;50.044;9.006;2023-04-24T20:09:35;10.90;99.90
16273;DHT22;8244;50.044;9.006;2023-04-24T20:14:37;10.80;99.90
16273;DHT22;8244;50.044;9.006;2023-04-24T20:19:40;10.80;99.90
16273;DHT22;8244;50.044;9.006;2023-04-24T20:24:41;10.80;99.90
16273;DHT22;8244;50.044;9.006;2023-04-24T20:29:43;10.70;99.90
16273;DHT22;8244;50.044;9.006;2023-04-24T20:34:47;10.70;99.90
16273;DHT22;8244;50.044;9.006;2023-04-24T20:39:48;10.70;99.90
16273;DHT22;8244;50.044;9.006;2023-04-24T20:44:52;10.60;99.90
16273;DHT22;8244;50.044;9.006;2023-04-24T20:49:55;10.60;99.90
16273;DHT22;8244;50.044;9.006;2023-04-24T20:54:56;10.50;99.90
16273;DHT22;8244;50.044;9.006;2023-04-24T20:59:58;10.40;99.90
16273;DHT22;8244;50.044;9.006;2023-04-24T21:05:02;10.40;99.90
16273;DHT22;8244;50.044;9.006;2023-04-24T21:10:04;10.40;99.90
16273;DHT22;8244;50.044;9.006;2023-04-24T21:15:06;10.30;99.90
16273;DHT22;8244;50.044;9.006;2023-04-24T21:20:10;10.30;99.90
16273;DHT22;8244;50.044;9.006;2023-04-24T21:25:12;10.20;99.90
16273;DHT22;8244;50.044;9.006;2023-04-24T21:30:13;10.20;99.90
16273;DHT22;8244;50.044;9.006;2023-04-24T21:35:17;10.10;99.90
16273;DHT22;8244;50.044;9.006;2023-04-24T21:40:19;10.10;99.90
16273;DHT22;8244;50.044;9.006;2023-04-24T21:45:20;10.10;99.90
16273;DHT22;8244;50.044;9.006;2023-04-24T21:50:23;10.10;99.90
16273;DHT22;8244;50.044;9.006;2023-04-24T21:55:25;10.10;99.90
16273;DHT22;8244;50.044;9.006;2023-04-24T22:00:27;10.10;99.90
16273;DHT22;8244;50.044;9.006;2023-04-24T22:05:30;10.10;99.90
16273;DHT22;8244;50.044;9.006;2023-04-24T22:10:32;10.10;99.90
16273;DHT22;8244;50.044;9.006;2023-04-24T22:15:33;10.10;99.90
16273;DHT22;8244;50.044;9.006;2023-04-24T22:20:36;10.00;99.90
16273;DHT22;8244;50.044;9.006;2023-04-24T22:25:38;10.00;99.90
16273;DHT22;8244;50.044;9.006;2023-04-24T22:30:40;10.00;99.90
16273;DHT22;8244;50.044;9.006;2023-04-24T22:35:43;10.00;99.90
16273;DHT22;8244;50.044;9.006;2023-04-24T22:40:45;10.00;99.90
16273;DHT22;8244;50.044;9.006;2023-04-24T22:45:46;9.90;99.90
16273;DHT22;8244;50.044;9.006;2023-04-24T22:50:49;9.90;99.90
16273;DHT22;8244;50.044;9.006;2023-04-24T22:55:51;9.90;99.90
16273;DHT22;8244;50.044;9.006;2023-04-24T23:00:53;9.90;99.90
16273;DHT22;8244;50.044;9.006;2023-04-24T23:05:56;9.80;99.90
16273;DHT22;8244;50.044;9.006;2023-04-24T23:10:58;9.80;99.90
16273;DHT22;8244;50.044;9.006;2023-04-24T23:16:00;9.80;99.90
16273;DHT22;8244;50.044;9.006;2023-04-24T23:21:03;9.80;99.90
16273;DHT22;8244;50.044;9.006;2023-04-24T23:26:06;9.80;99.90
16273;DHT22;8244;50.044;9.006;2023-04-24T23:31:07;9.70;99.90
16273;DHT22;8244;50.044;9.006;2023-04-24T23:36:10;9.70;99.90
16273;DHT22;8244;50.044;9.006;2023-04-24T23:41:12;9.60;99.90
16273;DHT22;8244;50.044;9.006;2023-04-24T23:46:14;9.50;99.90
16273;DHT22;8244;50.044;9.006;2023-04-24T23:51:17;9.50;99.90
16273;DHT22;8244;50.044;9.006;2023-04-24T23:56:19;9.40;99.90
